createdAt,value
2023-03-27T00:01:43.862Z,67.62
2023-03-27T00:04:10.500Z,67.67
2023-03-27T00:06:36.980Z,67.92
2023-03-27T00:09:03.611Z,68.20
2023-03-27T00:11:30.077Z,68.61
2023-03-27T00:13:56.496Z,68.09
2023-03-27T00:16:25.885Z,67.92
2023-03-27T00:18:52.548Z,68.88
2023-03-27T00:21:19.210Z,68.17
2023-03-27T00:23:45.735Z,68.82
2023-03-27T00:26:12.390Z,69.69
2023-03-27T00:28:38.829Z,68.50
2023-03-27T00:31:10.882Z,68.25
2023-03-27T00:33:37.598Z,68.86
2023-03-27T00:36:04.402Z,68.36
2023-03-27T00:38:30.937Z,68.49
2023-03-27T00:40:57.832Z,68.12
2023-03-27T00:43:32.831Z,67.56
2023-03-27T00:46:51.795Z,67.23
2023-03-27T00:49:18.312Z,68.11
2023-03-27T00:51:46.458Z,68.23
2023-03-27T00:54:17.097Z,68.07
2023-03-27T00:56:45.641Z,68.48
2023-03-27T00:59:16.085Z,68.46
2023-03-27T01:01:44.646Z,69.17
2023-03-27T01:04:11.553Z,68.49
2023-03-27T01:06:39.179Z,68.16
2023-03-27T01:09:05.684Z,68.07
2023-03-27T01:11:40.970Z,67.90
2023-03-27T01:14:32.177Z,67.26
2023-03-27T01:16:58.541Z,67.68
2023-03-27T01:19:37.623Z,68.18
2023-03-27T01:22:06.759Z,68.24
2023-03-27T01:24:57.108Z,67.94
2023-03-27T01:28:08.991Z,68.25
2023-03-27T01:30:58.879Z,68.02
2023-03-27T01:33:25.524Z,68.63
2023-03-27T01:36:02.342Z,68.31
2023-03-27T01:39:06.173Z,69.32
2023-03-27T01:41:47.832Z,68.98
2023-03-27T01:44:43.069Z,69.47
2023-03-27T01:47:42.555Z,70.30
2023-03-27T01:50:29.031Z,69.91
2023-03-27T01:53:56.936Z,70.24
2023-03-27T01:56:28.964Z,70.17
2023-03-27T01:59:02.980Z,70.06
2023-03-27T02:01:36.301Z,70.52
2023-03-27T02:04:05.456Z,70.83
2023-03-27T02:06:36.858Z,71.74
2023-03-27T02:09:07.213Z,71.93
2023-03-27T02:11:38.512Z,72.09
2023-03-27T02:14:11.258Z,71.73
2023-03-27T02:16:42.208Z,71.87
2023-03-27T02:19:18.500Z,72.22
2023-03-27T02:21:44.983Z,71.96
2023-03-27T02:24:11.442Z,70.86
2023-03-27T02:26:38.000Z,71.29
2023-03-27T02:29:29.213Z,71.83
2023-03-27T02:32:37.261Z,71.09
2023-03-27T02:35:11.310Z,71.08
2023-03-27T02:37:40.793Z,71.02
2023-03-27T02:40:12.583Z,70.90
2023-03-27T02:42:55.678Z,71.63
2023-03-27T02:45:28.402Z,71.75
2023-03-27T02:48:03.665Z,71.15
2023-03-27T02:50:45.531Z,70.91
2023-03-27T02:53:15.452Z,70.60
2023-03-27T02:55:45.717Z,70.57
2023-03-27T02:58:17.992Z,70.47
2023-03-27T03:00:48.593Z,70.26
2023-03-27T03:03:24.811Z,70.87
2023-03-27T03:05:51.539Z,70.85
2023-03-27T03:08:18.036Z,70.12
2023-03-27T03:10:45.429Z,70.55
2023-03-27T03:13:12.130Z,71.37
2023-03-27T03:15:38.591Z,71.71
2023-03-27T03:18:05.487Z,71.67
2023-03-27T03:20:31.990Z,70.88
2023-03-27T03:22:58.507Z,70.86
2023-03-27T03:25:24.997Z,70.21
2023-03-27T03:27:52.118Z,70.57
2023-03-27T03:30:18.604Z,70.49
2023-03-27T03:32:45.139Z,69.99
2023-03-27T03:35:11.635Z,70.37
2023-03-27T03:37:38.128Z,71.12
2023-03-27T03:40:06.868Z,71.13
2023-03-27T03:42:33.316Z,72.74
2023-03-27T03:44:59.753Z,71.54
2023-03-27T03:47:26.248Z,74.68
2023-03-27T03:49:52.689Z,77.84
2023-03-27T03:52:19.119Z,78.66
2023-03-27T03:54:46.650Z,79.33
2023-03-27T03:57:13.483Z,79.90
2023-03-27T03:59:40.205Z,78.31
2023-03-27T04:02:06.707Z,79.01
2023-03-27T04:04:33.188Z,77.98
2023-03-27T04:06:59.652Z,78.40
2023-03-27T04:09:26.090Z,79.44
2023-03-27T04:11:52.585Z,79.98
2023-03-27T04:14:19.013Z,79.67
2023-03-27T04:16:45.464Z,79.50
2023-03-27T04:19:11.918Z,80.48
2023-03-27T04:21:38.879Z,79.82
2023-03-27T04:24:05.635Z,80.27
2023-03-27T04:26:32.104Z,79.31
2023-03-27T04:28:58.563Z,78.41
2023-03-27T04:31:25.110Z,76.84
2023-03-27T04:33:51.608Z,79.01
2023-03-27T04:36:18.843Z,78.87
2023-03-27T04:38:45.389Z,80.67
2023-03-27T04:41:11.873Z,80.74
2023-03-27T04:43:38.339Z,80.00
2023-03-27T04:46:05.002Z,80.28
2023-03-27T04:48:31.481Z,78.50
2023-03-27T04:50:58.202Z,80.32
2023-03-27T04:53:24.917Z,81.13
2023-03-27T04:55:51.420Z,80.48
2023-03-27T04:58:19.014Z,80.55
2023-03-27T05:00:46.009Z,80.31
2023-03-27T05:03:12.501Z,79.44
2023-03-27T05:05:38.989Z,79.67
2023-03-27T05:08:05.520Z,80.05
2023-03-27T05:10:31.947Z,81.66
2023-03-27T05:12:58.536Z,79.97
2023-03-27T05:15:25.152Z,79.89
2023-03-27T05:17:51.694Z,79.91
2023-03-27T05:20:18.695Z,79.42
2023-03-27T05:22:45.772Z,78.77
2023-03-27T05:25:12.282Z,79.57
2023-03-27T05:27:38.737Z,80.28
2023-03-27T05:30:05.897Z,78.22
2023-03-27T05:32:32.413Z,79.81
2023-03-27T05:34:58.902Z,78.68
2023-03-27T05:37:26.990Z,79.66
2023-03-27T05:39:53.922Z,79.24
2023-03-27T05:42:20.356Z,77.91
2023-03-27T05:44:46.813Z,78.08
2023-03-27T05:47:13.285Z,78.14
2023-03-27T05:49:39.914Z,77.97
2023-03-27T05:52:06.438Z,77.59
2023-03-27T05:54:32.897Z,79.08
2023-03-27T05:56:59.538Z,78.47
2023-03-27T05:59:26.141Z,79.02
2023-03-27T06:01:52.614Z,77.90
2023-03-27T06:04:19.092Z,78.69
2023-03-27T06:06:45.598Z,79.38
2023-03-27T06:09:12.063Z,78.58
2023-03-27T06:11:39.172Z,79.60
2023-03-27T06:14:05.658Z,78.72
2023-03-27T06:16:32.205Z,77.70
2023-03-27T06:18:58.756Z,77.67
2023-03-27T06:21:25.264Z,78.10
2023-03-27T06:23:51.731Z,76.81
2023-03-27T06:26:18.224Z,75.91
2023-03-27T06:28:44.712Z,77.26
2023-03-27T06:31:11.264Z,76.99
2023-03-27T06:33:37.763Z,77.23
2023-03-27T06:36:04.675Z,78.43
2023-03-27T06:38:31.778Z,76.01
2023-03-27T06:40:59.282Z,78.00
2023-03-27T06:43:25.845Z,76.02
2023-03-27T06:45:52.623Z,76.78
2023-03-27T06:48:22.066Z,75.21
2023-03-27T06:50:51.281Z,76.81
2023-03-27T06:55:48.218Z,75.61
2023-03-27T06:58:15.170Z,74.50
2023-03-27T07:00:41.685Z,74.87
2023-03-27T07:03:09.994Z,76.10
2023-03-27T07:05:39.361Z,75.67
2023-03-27T07:08:18.960Z,74.95
2023-03-27T07:10:59.980Z,74.40
2023-03-27T07:13:34.605Z,75.23
2023-03-27T07:16:01.092Z,73.92
2023-03-27T07:18:27.714Z,73.89
2023-03-27T07:20:54.294Z,75.17
2023-03-27T07:23:20.877Z,74.28
2023-03-27T07:25:47.309Z,73.60
2023-03-27T07:28:13.800Z,73.58
2023-03-27T07:30:40.442Z,74.72
2023-03-27T07:33:07.453Z,74.62
2023-03-27T07:35:34.043Z,74.86
2023-03-27T07:38:02.032Z,74.81
2023-03-27T07:40:38.971Z,76.60
2023-03-27T07:43:06.784Z,75.36
2023-03-27T07:45:35.138Z,74.65
2023-03-27T07:48:10.029Z,75.25
2023-03-27T07:50:36.755Z,73.79
2023-03-27T07:53:03.946Z,74.21
2023-03-27T07:55:30.406Z,73.85
2023-03-27T07:58:01.326Z,72.39
2023-03-27T08:00:30.129Z,71.34
2023-03-27T08:03:05.892Z,70.60
2023-03-27T08:05:32.846Z,70.70
2023-03-27T08:07:59.298Z,70.45
2023-03-27T08:10:25.835Z,69.97
2023-03-27T08:12:52.274Z,69.11
2023-03-27T08:15:18.820Z,69.02
2023-03-27T08:17:45.440Z,67.49
2023-03-27T08:20:12.033Z,71.27
2023-03-27T08:22:38.667Z,70.17
2023-03-27T08:25:07.543Z,70.37
2023-03-27T08:27:34.187Z,69.40
2023-03-27T08:30:01.282Z,69.68
2023-03-27T08:32:28.303Z,69.12
2023-03-27T08:34:54.778Z,71.72
2023-03-27T08:37:21.283Z,71.04
2023-03-27T08:39:47.758Z,71.71
2023-03-27T08:42:19.347Z,69.33
2023-03-27T08:44:46.462Z,73.09
2023-03-27T08:47:37.229Z,71.65
2023-03-27T08:50:15.347Z,69.06
2023-03-27T08:52:43.544Z,71.31
2023-03-27T08:55:16.852Z,70.83
2023-03-27T08:57:43.686Z,68.24
2023-03-27T09:00:23.326Z,71.66
2023-03-27T09:03:13.292Z,72.07
2023-03-27T09:06:07.131Z,70.90
2023-03-27T09:08:48.758Z,74.48
2023-03-27T09:11:49.562Z,75.37
2023-03-27T09:14:33.057Z,75.55
2023-03-27T09:17:09.648Z,74.13
2023-03-27T09:19:59.613Z,74.05
2023-03-27T09:22:33.681Z,75.09
2023-03-27T09:25:04.051Z,75.02
2023-03-27T09:27:34.397Z,74.64
2023-03-27T09:30:05.917Z,73.30
2023-03-27T09:32:33.799Z,75.56
2023-03-27T09:35:00.942Z,76.08
2023-03-27T09:37:27.510Z,76.67
2023-03-27T09:39:56.528Z,75.81
2023-03-27T09:42:32.849Z,76.10
2023-03-27T09:45:03.522Z,77.26
2023-03-27T09:47:38.192Z,78.62
2023-03-27T09:50:29.906Z,78.79
2023-03-27T09:53:17.624Z,80.25
2023-03-27T09:56:12.011Z,82.79
2023-03-27T09:58:46.950Z,82.81
2023-03-27T10:01:28.851Z,83.26
2023-03-27T10:03:57.793Z,81.86
2023-03-27T10:06:30.025Z,83.65
2023-03-27T10:08:58.997Z,84.00
2023-03-27T10:11:30.405Z,82.09
2023-03-27T10:13:59.784Z,82.16
2023-03-27T10:16:27.713Z,80.15
2023-03-27T10:18:57.687Z,80.42
2023-03-27T10:21:34.374Z,82.07
2023-03-27T10:24:06.928Z,79.71
2023-03-27T10:26:36.988Z,81.53
2023-03-27T10:29:18.895Z,80.32
2023-03-27T10:31:53.933Z,81.36
2023-03-27T10:34:50.756Z,79.85
2023-03-27T10:37:20.678Z,79.30
2023-03-27T10:39:47.493Z,77.25
2023-03-27T10:42:15.604Z,75.83
2023-03-27T10:44:45.443Z,77.61
2023-03-27T10:47:25.177Z,76.84
2023-03-27T10:49:54.633Z,75.81
2023-03-27T10:52:25.567Z,75.69
2023-03-27T10:55:00.683Z,74.55
2023-03-27T10:57:32.823Z,74.22
2023-03-27T11:00:09.635Z,73.85
2023-03-27T11:02:47.305Z,72.06
2023-03-27T11:05:23.437Z,70.29
2023-03-27T11:08:02.133Z,70.24
2023-03-27T11:10:36.765Z,69.67
2023-03-27T11:13:15.779Z,71.64
2023-03-27T11:16:00.113Z,67.81
2023-03-27T11:18:37.573Z,68.96
2023-03-27T11:21:38.217Z,71.36
2023-03-27T11:24:13.037Z,68.83
2023-03-27T11:27:13.309Z,64.77
2023-03-27T11:29:58.072Z,67.80
2023-03-27T11:32:37.261Z,68.46
2023-03-27T11:35:11.245Z,67.28
2023-03-27T11:37:48.302Z,66.50
2023-03-27T11:40:23.268Z,65.67
2023-03-27T11:42:50.359Z,65.58
2023-03-27T11:45:21.031Z,63.06
2023-03-27T11:48:11.124Z,65.98
2023-03-27T11:50:48.443Z,65.23
2023-03-27T11:53:38.736Z,64.44
2023-03-27T11:56:30.482Z,63.46
2023-03-27T11:58:56.851Z,63.22
2023-03-27T12:01:25.905Z,64.43
2023-03-27T12:04:49.401Z,63.99
2023-03-27T12:07:36.925Z,62.58
2023-03-27T12:10:36.881Z,62.42
2023-03-27T12:13:40.651Z,61.57
2023-03-27T12:16:30.227Z,64.92
2023-03-27T12:19:27.758Z,65.16
2023-03-27T12:22:24.007Z,61.31
2023-03-27T12:25:03.120Z,63.57
2023-03-27T12:28:03.449Z,62.98
2023-03-27T12:30:51.070Z,63.53
2023-03-27T12:33:31.712Z,63.47
2023-03-27T12:36:02.567Z,61.58
2023-03-27T12:38:32.178Z,62.48
2023-03-27T12:41:09.024Z,60.19
2023-03-27T12:43:37.773Z,60.55
2023-03-27T12:46:22.697Z,63.65
2023-03-27T12:49:01.387Z,62.33
2023-03-27T12:51:53.901Z,62.75
2023-03-27T12:54:37.975Z,58.98
2023-03-27T12:57:21.847Z,62.90
2023-03-27T12:59:48.380Z,61.84
2023-03-27T13:02:14.950Z,62.95
2023-03-27T13:05:24.171Z,62.62
2023-03-27T13:08:30.735Z,62.49
2023-03-27T13:11:09.290Z,58.93
2023-03-27T13:14:06.778Z,63.39
2023-03-27T13:16:39.531Z,62.14
2023-03-27T13:19:20.408Z,61.29
2023-03-27T13:22:25.122Z,60.71
2023-03-27T13:25:17.855Z,60.66
2023-03-27T13:28:12.132Z,60.98
2023-03-27T13:30:46.555Z,61.08
2023-03-27T13:33:31.179Z,61.78
2023-03-27T13:35:57.802Z,60.44
2023-03-27T13:39:02.934Z,63.28
2023-03-27T13:41:55.218Z,62.47
2023-03-27T13:44:27.506Z,63.28
2023-03-27T13:47:19.282Z,62.86
2023-03-27T13:50:14.347Z,63.73
2023-03-27T13:53:24.722Z,62.91
2023-03-27T13:55:51.181Z,62.01
2023-03-27T13:58:51.499Z,61.75
2023-03-27T14:01:42.039Z,60.81
2023-03-27T14:04:33.278Z,61.51
2023-03-27T14:07:24.239Z,60.33
2023-03-27T14:09:56.570Z,61.27
2023-03-27T14:12:38.906Z,60.37
2023-03-27T14:15:28.822Z,61.93
2023-03-27T14:18:10.259Z,62.37
2023-03-27T14:20:45.160Z,60.55
2023-03-27T14:23:25.887Z,60.44
2023-03-27T14:26:03.673Z,59.57
2023-03-27T14:28:31.839Z,61.38
2023-03-27T14:31:00.419Z,60.99
2023-03-27T14:33:27.254Z,60.50
2023-03-27T14:35:57.186Z,59.83
2023-03-27T14:38:28.665Z,60.42
2023-03-27T14:40:57.711Z,58.83
2023-03-27T14:43:27.679Z,58.68
2023-03-27T14:46:01.292Z,59.24
2023-03-27T14:48:32.397Z,57.88
2023-03-27T14:51:02.918Z,56.47
2023-03-27T14:53:33.633Z,57.44
2023-03-27T14:56:15.804Z,57.59
2023-03-27T14:58:46.347Z,58.02
2023-03-27T15:01:14.495Z,57.94
2023-03-27T15:03:44.361Z,58.21
2023-03-27T15:06:16.446Z,58.71
2023-03-27T15:08:50.204Z,60.03
2023-03-27T15:11:21.540Z,60.11
2023-03-27T15:13:48.624Z,60.19
2023-03-27T15:16:23.523Z,60.57
2023-03-27T15:19:06.569Z,61.22
2023-03-27T15:21:41.485Z,62.73
2023-03-27T15:24:15.856Z,61.52
2023-03-27T15:26:42.485Z,61.49
2023-03-27T15:29:44.387Z,61.96
2023-03-27T15:32:16.994Z,63.42
2023-03-27T15:34:46.914Z,62.65
2023-03-27T15:37:22.025Z,62.02
2023-03-27T15:40:09.500Z,61.30
2023-03-27T15:42:47.930Z,60.80
2023-03-27T15:45:17.679Z,60.68
2023-03-27T15:47:44.508Z,60.87
2023-03-27T15:50:20.319Z,60.48
2023-03-27T15:52:49.405Z,61.60
2023-03-27T15:55:34.058Z,60.85
2023-03-27T15:58:24.352Z,60.73
2023-03-27T16:00:53.428Z,61.73
2023-03-27T16:03:25.204Z,61.65
2023-03-27T16:05:55.255Z,61.64
2023-03-27T16:08:28.648Z,63.01
2023-03-27T16:10:56.633Z,62.97
2023-03-27T16:13:53.378Z,63.20
2023-03-27T16:16:33.992Z,63.07
2023-03-27T16:19:12.123Z,62.92
2023-03-27T16:21:38.619Z,62.97
2023-03-27T16:24:05.306Z,63.32
2023-03-27T16:26:32.254Z,63.95
2023-03-27T16:29:03.117Z,64.32
2023-03-27T16:31:29.622Z,63.68
2023-03-27T16:33:56.081Z,64.43
2023-03-27T16:36:30.109Z,63.83
2023-03-27T16:38:56.660Z,64.77
2023-03-27T16:41:23.110Z,65.19
2023-03-27T16:43:49.638Z,65.00
2023-03-27T16:46:23.037Z,65.65
2023-03-27T16:48:49.931Z,65.11
2023-03-27T16:51:17.347Z,65.94
2023-03-27T16:53:43.820Z,65.69
2023-03-27T16:56:10.386Z,65.85
2023-03-27T16:58:37.622Z,65.90
2023-03-27T17:01:04.613Z,66.69
2023-03-27T17:03:31.106Z,65.91
2023-03-27T17:06:02.046Z,65.93
2023-03-27T17:08:29.088Z,66.00
2023-03-27T17:10:56.292Z,65.74
2023-03-27T17:13:22.658Z,66.45
2023-03-27T17:15:50.034Z,66.75
2023-03-27T17:18:16.563Z,67.24
2023-03-27T17:20:43.155Z,67.29
2023-03-27T17:23:11.606Z,66.36
2023-03-27T17:25:38.264Z,67.69
2023-03-27T17:28:04.876Z,67.77
2023-03-27T17:30:41.019Z,67.73
2023-03-27T17:33:13.115Z,68.49
2023-03-27T17:35:40.963Z,67.97
2023-03-27T17:38:08.910Z,67.71
2023-03-27T17:40:39.264Z,66.05
2023-03-27T17:43:05.778Z,66.67
2023-03-27T17:45:32.350Z,66.46
2023-03-27T17:47:58.822Z,65.22
2023-03-27T17:50:25.361Z,65.03
2023-03-27T17:52:51.802Z,65.63
2023-03-27T17:55:18.248Z,65.23
2023-03-27T17:57:45.355Z,64.84
2023-03-27T18:00:14.560Z,64.98
2023-03-27T18:02:41.249Z,65.31
2023-03-27T18:05:07.887Z,65.43
2023-03-27T18:07:34.549Z,65.85
2023-03-27T18:10:01.032Z,65.58
2023-03-27T18:12:27.888Z,65.98
2023-03-27T18:14:54.345Z,66.43
2023-03-27T18:17:20.835Z,66.12
2023-03-27T18:19:47.860Z,65.89
2023-03-27T18:22:14.405Z,65.87
2023-03-27T18:24:40.890Z,66.49
2023-03-27T18:27:07.363Z,66.57
2023-03-27T18:29:33.868Z,66.72
2023-03-27T18:32:00.840Z,65.70
2023-03-27T18:34:27.355Z,66.10
2023-03-27T18:36:53.785Z,65.98
2023-03-27T18:39:22.019Z,65.75
2023-03-27T18:41:48.494Z,65.92
2023-03-27T18:44:15.199Z,65.42
2023-03-27T18:46:41.721Z,66.55
2023-03-27T18:49:21.535Z,66.32
2023-03-27T18:51:51.085Z,65.53
2023-03-27T18:54:17.584Z,64.69
2023-03-27T18:56:44.171Z,65.87
2023-03-27T18:59:10.727Z,64.76
2023-03-27T19:01:37.263Z,64.35
2023-03-27T19:04:04.012Z,64.09
2023-03-27T19:06:32.820Z,63.61
2023-03-27T19:08:59.277Z,63.47
2023-03-27T19:11:25.807Z,63.40
2023-03-27T19:13:52.326Z,62.61
2023-03-27T19:16:18.849Z,62.17
2023-03-27T19:18:45.278Z,63.50
2023-03-27T19:21:11.769Z,63.87
2023-03-27T19:23:38.235Z,64.86
2023-03-27T19:26:10.397Z,64.64
2023-03-27T19:28:37.267Z,65.02
2023-03-27T19:31:08.169Z,65.28
2023-03-27T19:33:35.155Z,65.20
2023-03-27T19:36:01.726Z,64.94
2023-03-27T19:38:28.656Z,65.09
2023-03-27T19:40:55.830Z,65.16
2023-03-27T19:43:22.877Z,65.88
2023-03-27T19:46:04.399Z,66.69
2023-03-27T19:48:40.292Z,67.62
2023-03-27T19:51:06.740Z,67.14
2023-03-27T19:53:33.163Z,66.97
2023-03-27T19:55:59.987Z,67.08
2023-03-27T19:58:26.962Z,68.10
2023-03-27T20:00:53.882Z,67.63
2023-03-27T20:03:21.638Z,67.42
2023-03-27T20:05:51.070Z,68.09
2023-03-27T20:08:18.816Z,67.93
2023-03-27T20:10:46.151Z,65.40
2023-03-27T20:13:12.626Z,65.62
2023-03-27T20:15:50.108Z,65.22
2023-03-27T20:18:17.331Z,64.83
2023-03-27T20:20:45.008Z,64.21
2023-03-27T20:23:11.874Z,63.50
2023-03-27T20:25:38.589Z,62.52
2023-03-27T20:28:06.067Z,62.54
2023-03-27T20:30:35.951Z,62.68
2023-03-27T20:33:02.912Z,63.48
2023-03-27T20:35:33.619Z,63.58
2023-03-27T20:38:00.236Z,64.37
2023-03-27T20:40:26.788Z,64.58
2023-03-27T20:42:53.407Z,64.85
2023-03-27T20:45:20.767Z,65.09
2023-03-27T20:47:47.803Z,65.53
2023-03-27T20:50:17.497Z,65.96
2023-03-27T20:52:44.304Z,65.73
2023-03-27T20:55:17.382Z,66.11
2023-03-27T20:57:49.796Z,65.39
2023-03-27T21:00:16.597Z,65.00
2023-03-27T21:02:43.820Z,64.78
2023-03-27T21:05:10.396Z,64.38
2023-03-27T21:07:36.846Z,63.96
2023-03-27T21:10:04.256Z,63.67
2023-03-27T21:12:30.894Z,64.66
2023-03-27T21:14:57.359Z,64.61
2023-03-27T21:17:23.860Z,64.89
2023-03-27T21:19:50.308Z,65.47
2023-03-27T21:22:16.772Z,65.51
2023-03-27T21:24:43.299Z,65.26
2023-03-27T21:27:09.815Z,66.17
2023-03-27T21:29:36.403Z,66.10
2023-03-27T21:32:02.883Z,65.54
2023-03-27T21:34:29.348Z,63.66
2023-03-27T21:36:55.842Z,63.71
2023-03-27T21:39:22.327Z,62.18
2023-03-27T21:41:48.828Z,62.48
2023-03-27T21:44:15.263Z,61.49
2023-03-27T21:46:41.718Z,61.94
2023-03-27T21:49:08.203Z,62.08
2023-03-27T21:51:34.661Z,61.75
2023-03-27T21:54:01.116Z,62.17
2023-03-27T21:56:27.625Z,60.92
2023-03-27T21:58:54.076Z,61.90
2023-03-27T22:01:20.542Z,61.72
2023-03-27T22:03:47.110Z,62.43
2023-03-27T22:06:13.717Z,63.54
2023-03-27T22:08:42.263Z,64.01
2023-03-27T22:11:10.722Z,62.42
2023-03-27T22:13:38.624Z,61.46
2023-03-27T22:16:14.680Z,61.55
2023-03-27T22:18:42.730Z,62.26
2023-03-27T22:21:21.364Z,62.33
2023-03-27T22:23:48.327Z,61.96
2023-03-27T22:26:14.840Z,61.52
2023-03-27T22:28:41.344Z,61.20
2023-03-27T22:31:07.979Z,60.39
2023-03-27T22:33:35.194Z,60.50
2023-03-27T22:36:01.970Z,59.26
2023-03-27T22:38:32.732Z,59.90
2023-03-27T22:40:59.620Z,58.18
2023-03-27T22:43:28.928Z,59.47
2023-03-27T22:45:55.901Z,57.95
2023-03-27T22:48:22.663Z,58.79
2023-03-27T22:50:56.597Z,57.89
2023-03-27T22:53:23.602Z,58.25
2023-03-27T22:55:51.490Z,59.45
2023-03-27T22:58:18.446Z,58.66
2023-03-27T23:00:49.688Z,58.06
2023-03-27T23:03:16.798Z,58.41
2023-03-27T23:05:45.804Z,58.11
2023-03-27T23:08:12.637Z,59.11
2023-03-27T23:10:39.188Z,58.55
2023-03-27T23:13:05.772Z,56.29
2023-03-27T23:15:32.227Z,57.08
2023-03-27T23:17:58.764Z,56.63
2023-03-27T23:20:26.131Z,56.11
2023-03-27T23:22:53.405Z,56.84
2023-03-27T23:25:20.114Z,57.17
2023-03-27T23:27:46.812Z,57.59
2023-03-27T23:30:13.348Z,56.86
2023-03-27T23:32:39.833Z,57.67
2023-03-27T23:35:08.446Z,56.70
2023-03-27T23:37:35.040Z,57.70
2023-03-27T23:40:01.996Z,58.24
2023-03-27T23:42:28.680Z,58.16
2023-03-27T23:44:55.147Z,58.78
2023-03-27T23:47:21.728Z,59.13
2023-03-27T23:49:48.422Z,58.93
2023-03-27T23:52:14.888Z,60.10
2023-03-27T23:54:41.312Z,60.15
2023-03-27T23:57:07.956Z,59.81
2023-03-27T23:59:38.158Z,60.77
